Time;durP1;ratioP1;P1;durP2;ratioP2;P2;SDS_P1;SDS_P2;PMS_P1;PMS_P2;Temp;Humidity;BMP_temperature;BMP_pressure;BME280_temperature;BME280_humidity;BME280_pressure;Samples;Min_cycle;Max_cycle;Signal;HPM_P1;HPM_P2
2020/12/01 00:00:28;;;;;;;91.63;36.63;;;;;;;-1.17;100.00;102160.41;4991252;28;20033;-77
2020/12/01 00:02:54;;;;;;;86.97;35.25;;;;;;;-1.02;100.00;102165.63;5007232;28;20479;-77
2020/12/01 00:05:22;;;;;;;87.03;34.90;;;;;;;-0.93;100.00;102167.66;4973931;28;20050;-77
2020/12/01 00:07:47;;;;;;;81.85;34.53;;;;;;;-0.83;100.00;102163.53;4990664;28;20034;-78
2020/12/01 00:10:15;;;;;;;79.78;33.72;;;;;;;-0.95;100.00;102165.13;4974709;28;20038;-78
2020/12/01 00:12:46;;;;;;;76.25;33.20;;;;;;;-0.79;100.00;102164.16;4991242;28;20019;-77
2020/12/01 00:15:16;;;;;;;75.90;33.30;;;;;;;-0.85;100.00;102160.16;4993036;28;20501;-78
2020/12/01 00:17:43;;;;;;;73.03;30.63;;;;;;;-0.98;100.00;102159.28;4985820;28;20062;-77
2020/12/01 00:20:09;;;;;;;68.18;29.95;;;;;;;-0.87;100.00;102175.09;4974378;28;20034;-78
2020/12/01 00:22:35;;;;;;;73.68;30.35;;;;;;;-0.81;100.00;102174.72;4974297;28;20031;-78
2020/12/01 00:25:01;;;;;;;71.75;32.00;;;;;;;-0.83;100.00;102175.75;4974012;28;20045;-77
2020/12/01 00:27:27;;;;;;;79.90;34.10;;;;;;;-0.89;100.00;102176.94;4990529;28;20026;-78
2020/12/01 00:29:53;;;;;;;71.70;30.70;;;;;;;-0.87;100.00;102176.88;4990374;28;20555;-78
2020/12/01 00:32:18;;;;;;;71.72;29.02;;;;;;;-0.89;100.00;102179.56;4975110;28;20045;-76
2020/12/01 00:34:44;;;;;;;70.63;30.90;;;;;;;-0.82;100.00;102182.63;4975246;28;20522;-77
2020/12/01 00:37:09;;;;;;;67.65;30.77;;;;;;;-0.87;100.00;102182.94;4974850;28;20045;-77
2020/12/01 00:39:35;;;;;;;78.47;30.58;;;;;;;-0.84;100.00;102185.34;4974626;28;20475;-78
2020/12/01 00:42:00;;;;;;;73.28;28.48;;;;;;;-0.94;100.00;102182.47;4990462;28;20033;-78
2020/12/01 00:44:26;;;;;;;75.38;32.38;;;;;;;-0.89;100.00;102181.34;4974702;28;20349;-78
2020/12/01 00:46:51;;;;;;;70.43;29.88;;;;;;;-0.90;100.00;102184.91;4975058;28;20498;-77
2020/12/01 00:49:17;;;;;;;79.55;33.97;;;;;;;-0.95;100.00;102180.78;4974623;28;20027;-78
2020/12/01 00:51:43;;;;;;;74.75;33.20;;;;;;;-0.97;100.00;102180.06;4974572;28;20022;-77
2020/12/01 00:54:08;;;;;;;79.50;32.60;;;;;;;-0.94;100.00;102176.41;4973854;28;20031;-77
2020/12/01 00:56:33;;;;;;;82.22;34.40;;;;;;;-0.96;100.00;102168.69;4974229;28;20027;-78
2020/12/01 00:58:59;;;;;;;84.88;33.55;;;;;;;-0.88;100.00;102167.34;4975001;28;20456;-77
2020/12/01 01:01:26;;;;;;;79.25;32.08;;;;;;;-0.85;100.00;102172.38;4974799;28;20384;-78
2020/12/01 01:03:52;;;;;;;84.22;33.25;;;;;;;-0.85;100.00;102169.75;4989688;28;20029;-78
2020/12/01 01:06:17;;;;;;;87.28;35.95;;;;;;;-0.94;100.00;102163.34;4974752;28;20022;-77
2020/12/01 01:08:43;;;;;;;87.22;36.67;;;;;;;-0.84;100.00;102159.25;4989929;28;20033;-77
2020/12/01 01:11:10;;;;;;;81.43;34.97;;;;;;;-0.96;100.00;102171.28;4973924;28;20464;-77
2020/12/01 01:13:37;;;;;;;76.47;34.45;;;;;;;-0.89;100.00;102161.31;4974239;28;20045;-78
2020/12/01 01:16:03;;;;;;;84.18;34.28;;;;;;;-1.00;100.00;102162.00;4974630;28;20026;-78
2020/12/01 01:18:28;;;;;;;82.70;34.95;;;;;;;-1.01;100.00;102165.50;4973738;28;20023;-78
2020/12/01 01:20:54;;;;;;;80.60;33.97;;;;;;;-1.03;100.00;102163.94;4973327;28;20042;-78
2020/12/01 01:23:19;;;;;;;79.65;34.22;;;;;;;-1.01;100.00;102162.06;4974351;28;20026;-79
2020/12/01 01:25:44;;;;;;;86.00;33.80;;;;;;;-0.98;100.00;102157.50;4989790;28;20022;-78
2020/12/01 01:28:10;;;;;;;74.85;34.42;;;;;;;-1.03;100.00;102154.34;4989267;28;20484;-77
2020/12/01 01:30:38;;;;;;;84.70;34.58;;;;;;;-0.85;100.00;102159.34;4989813;28;20031;-78
2020/12/01 01:33:05;;;;;;;68.88;32.40;;;;;;;-0.84;100.00;102159.25;4973808;28;20364;-78
2020/12/01 01:35:30;;;;;;;75.95;33.92;;;;;;;-1.05;100.00;102156.22;4973215;28;20035;-77
2020/12/01 01:37:55;;;;;;;70.65;32.35;;;;;;;-1.05;100.00;102153.59;4973526;28;20030;-77
2020/12/01 01:40:26;;;;;;;79.82;34.05;;;;;;;-0.90;100.00;102146.59;4974523;28;20453;-77
2020/12/01 01:42:52;;;;;;;75.43;33.63;;;;;;;-0.82;100.00;102136.50;4989168;28;20054;-77
2020/12/01 01:45:46;;;;;;;84.43;36.40;;;;;;;-0.86;100.00;102155.88;4974259;28;20472;-78
2020/12/01 01:48:26;;;;;;;91.03;41.28;;;;;;;-0.79;100.00;102148.50;4974349;28;20027;-78
2020/12/01 01:51:03;;;;;;;85.05;38.15;;;;;;;-0.98;100.00;102144.44;4977833;28;20492;-78
2020/12/01 01:53:31;;;;;;;84.47;36.63;;;;;;;-0.96;100.00;102144.38;4976499;28;20081;-77
2020/12/01 01:56:01;;;;;;;92.05;39.38;;;;;;;-0.86;100.00;102145.47;4960509;28;20031;-77
2020/12/01 01:58:32;;;;;;;92.05;40.50;;;;;;;-0.83;100.00;102134.00;4993524;28;20031;-78
2020/12/01 02:13:36;;;;;;;95.65;42.40;;;;;;;-0.96;100.00;102132.16;5122290;27;20384;-79
2020/12/01 02:16:02;;;;;;;97.07;38.47;;;;;;;-1.09;100.00;102127.78;5113137;28;20028;-79
2020/12/01 02:18:35;;;;;;;93.32;37.13;;;;;;;-1.10;100.00;102128.75;5118213;28;20024;-79
2020/12/01 02:21:20;;;;;;;83.35;34.92;;;;;;;-1.06;100.00;102138.03;5126951;28;20466;-79
2020/12/01 02:23:45;;;;;;;81.72;35.55;;;;;;;-1.02;100.00;102136.94;5116355;28;20503;-77
2020/12/01 02:26:11;;;;;;;84.50;33.72;;;;;;;-0.91;100.00;102134.47;5113017;28;20387;-77
2020/12/01 02:28:36;;;;;;;78.05;33.95;;;;;;;-0.93;100.00;102134.56;5114433;28;20089;-77
2020/12/01 02:31:01;;;;;;;76.32;33.28;;;;;;;-0.89;100.00;102137.00;5126670;28;20440;-76
2020/12/01 02:33:27;;;;;;;78.07;33.67;;;;;;;-0.96;100.00;102124.34;5143741;27;20073;-78
2020/12/01 02:35:52;;;;;;;71.13;31.83;;;;;;;-0.96;100.00;102129.56;5114483;28;20383;-77
2020/12/01 02:38:17;;;;;;;72.45;32.20;;;;;;;-0.98;100.00;102131.41;5115772;28;20184;-77
2020/12/01 02:40:43;;;;;;;74.95;31.42;;;;;;;-1.02;100.00;102129.09;5143063;27;20024;-77
2020/12/01 02:43:10;;;;;;;80.30;33.45;;;;;;;-1.12;100.00;102131.47;5118143;28;20074;-78
2020/12/01 02:45:36;;;;;;;78.45;34.83;;;;;;;-1.21;100.00;102124.19;5119102;28;20442;-78
2020/12/01 02:48:01;;;;;;;71.78;32.75;;;;;;;-1.10;100.00;102121.75;5121563;27;20065;-80
2020/12/01 02:50:27;;;;;;;81.20;34.38;;;;;;;-1.06;100.00;102118.03;5118488;28;20426;-76
2020/12/01 02:52:52;;;;;;;79.38;34.22;;;;;;;-1.08;100.00;102119.06;5115453;28;20110;-76
2020/12/01 02:55:18;;;;;;;76.05;34.83;;;;;;;-1.02;100.00;102129.94;5115344;27;20600;-79
2020/12/01 02:57:43;;;;;;;74.80;33.63;;;;;;;-1.26;100.00;102129.69;5116775;27;20024;-80
2020/12/01 03:00:08;;;;;;;102.20;46.42;;;;;;;-1.11;100.00;102114.03;5118825;28;20030;-78
2020/12/01 03:02:34;;;;;;;97.40;41.13;;;;;;;-1.10;100.00;102121.75;5157598;27;20459;-78
2020/12/01 03:04:59;;;;;;;93.20;37.83;;;;;;;-1.32;100.00;102121.41;5108363;28;20472;-78
2020/12/01 03:07:24;;;;;;;82.50;36.25;;;;;;;-1.30;100.00;102119.53;5113282;28;20453;-77
2020/12/01 03:09:50;;;;;;;91.22;37.80;;;;;;;-1.20;100.00;102124.09;5110031;28;20038;-79
2020/12/01 03:12:15;;;;;;;80.97;35.85;;;;;;;-1.16;100.00;102122.97;5105340;27;20028;-77
2020/12/01 03:14:41;;;;;;;79.30;36.58;;;;;;;-1.13;100.00;102126.31;5098839;28;20047;-76
2020/12/01 03:17:06;;;;;;;73.00;32.13;;;;;;;-1.26;100.00;102121.88;5101656;28;20030;-79
2020/12/01 03:19:31;;;;;;;73.85;32.05;;;;;;;-1.35;100.00;102126.81;5104608;28;20158;-77
2020/12/01 03:21:57;;;;;;;76.90;34.30;;;;;;;-1.26;100.00;102124.47;5100076;28;20091;-80
2020/12/01 03:24:22;;;;;;;73.15;31.67;;;;;;;-1.22;100.00;102122.50;5097340;28;20475;-76
2020/12/01 03:26:48;;;;;;;69.25;27.38;;;;;;;0.26;100.00;102121.63;5097986;28;20027;-78
2020/12/01 03:29:13;;;;;;;86.38;49.90;;;;;;;5.86;92.23;102127.72;5104382;28;20112;-76
2020/12/01 03:31:39;;;;;;;72.03;48.28;;;;;;;6.31;83.82;102135.84;5096197;28;20479;-76
2020/12/01 03:34:04;;;;;;;30.92;16.45;;;;;;;0.27;96.82;102128.50;5113459;27;20511;-79
2020/12/01 03:36:30;;;;;;;42.03;20.95;;;;;;;-0.65;100.00;102137.22;5095370;28;20111;-80
2020/12/01 03:38:55;;;;;;;52.92;25.30;;;;;;;-0.90;100.00;102130.94;5106714;28;20360;-77
2020/12/01 03:41:21;;;;;;;53.28;24.73;;;;;;;-1.00;100.00;102135.03;5100296;28;20016;-77
2020/12/01 03:43:46;;;;;;;66.05;27.85;;;;;;;-1.08;100.00;102121.66;5103330;28;20108;-77
2020/12/01 03:46:12;;;;;;;63.15;28.70;;;;;;;-1.14;100.00;102127.25;5108795;28;20107;-77
2020/12/01 03:48:37;;;;;;;64.45;29.50;;;;;;;-1.19;100.00;102130.13;5101376;28;20502;-78
2020/12/01 03:51:02;;;;;;;73.35;29.98;;;;;;;-1.48;100.00;102124.13;5102164;28;20034;-77
2020/12/01 03:53:28;;;;;;;70.10;29.88;;;;;;;-1.30;100.00;102120.41;5103770;28;20084;-77
2020/12/01 03:55:54;;;;;;;73.97;29.45;;;;;;;-1.42;100.00;102127.19;5102000;28;20031;-77
2020/12/01 03:58:19;;;;;;;70.88;30.98;;;;;;;-1.36;100.00;102127.72;5101623;28;20016;-77
2020/12/01 04:00:45;;;;;;;77.55;31.65;;;;;;;-1.43;100.00;102129.88;5104203;28;20491;-80
2020/12/01 04:03:11;;;;;;;80.68;35.97;;;;;;;-1.66;100.00;102121.69;5104645;28;20020;-77
2020/12/01 04:05:37;;;;;;;83.45;34.25;;;;;;;-1.43;100.00;102125.50;5102966;28;20062;-77
2020/12/01 04:08:02;;;;;;;81.05;34.88;;;;;;;-1.35;100.00;102116.38;5102048;28;20035;-77
2020/12/01 04:10:28;;;;;;;90.63;37.08;;;;;;;-1.61;100.00;102129.22;5092047;28;20024;-77
2020/12/01 04:12:54;;;;;;;92.25;38.08;;;;;;;-1.63;100.00;102131.09;5100577;28;20016;-77
2020/12/01 04:15:23;;;;;;;94.30;38.53;;;;;;;-1.50;100.00;102125.97;5103869;28;20031;-77
2020/12/01 04:17:48;;;;;;;98.03;41.67;;;;;;;-1.40;100.00;102129.69;5107739;28;20103;-77
2020/12/01 04:20:14;;;;;;;109.97;47.95;;;;;;;-1.26;100.00;102131.47;5101885;28;20448;-78
2020/12/01 04:22:40;;;;;;;108.25;46.15;;;;;;;-1.28;100.00;102135.94;5099537;28;20023;-78
2020/12/01 04:25:08;;;;;;;103.72;47.22;;;;;;;-1.16;100.00;102125.56;5100068;28;20442;-77
2020/12/01 04:27:34;;;;;;;100.03;43.33;;;;;;;-1.25;100.00;102133.13;5102411;28;20031;-78
2020/12/01 04:30:00;;;;;;;86.32;35.92;;;;;;;-1.46;100.00;102130.06;5102131;28;20039;-78
2020/12/01 04:32:25;;;;;;;93.57;38.38;;;;;;;-1.48;100.00;102126.72;5108444;28;20103;-78
2020/12/01 04:34:51;;;;;;;89.88;38.05;;;;;;;-1.30;100.00;102125.59;5099171;28;20126;-77
2020/12/01 04:37:16;;;;;;;103.53;43.47;;;;;;;-1.38;100.00;102128.66;5101286;28;20830;-77
2020/12/01 04:39:42;;;;;;;99.70;42.50;;;;;;;-1.36;100.00;102125.97;5101465;28;20395;-77
2020/12/01 04:42:07;;;;;;;81.07;29.10;;;;;;;1.95;100.00;102119.06;5101085;28;20024;-74
2020/12/01 04:45:09;;;;;;;73.28;33.70;;;;;;;-1.00;100.00;102128.09;5100217;28;20073;-77
2020/12/01 04:47:54;;;;;;;70.78;28.13;;;;;;;-1.21;100.00;102127.66;5076045;28;20092;-77
2020/12/01 04:50:43;;;;;;;68.20;29.15;;;;;;;-1.62;100.00;102125.78;5095098;28;20031;-73
2020/12/01 04:53:20;;;;;;;84.70;35.33;;;;;;;-1.62;100.00;102119.72;5095995;28;20031;-76
2020/12/01 04:56:17;;;;;;;93.60;36.33;;;;;;;-1.51;100.00;102129.50;5100886;28;20035;-76
2020/12/01 04:59:04;;;;;;;93.00;35.85;;;;;;;-1.58;100.00;102128.19;5116950;27;20154;-77
2020/12/01 05:02:16;;;;;;;96.38;35.55;;;;;;;-1.36;100.00;102131.19;5090983;28;20031;-76
2020/12/01 05:04:50;;;;;;;108.45;44.08;;;;;;;-1.50;100.00;102131.19;5090064;28;20549;-76
2020/12/01 05:07:52;;;;;;;109.53;44.70;;;;;;;-1.51;100.00;102129.50;5091180;28;20043;-76
2020/12/01 05:10:19;;;;;;;110.75;44.55;;;;;;;-1.34;100.00;102134.53;5091974;28;20378;-76
2020/12/01 05:12:56;;;;;;;118.30;50.55;;;;;;;-1.26;100.00;102124.47;5091288;28;20047;-77
2020/12/01 05:15:29;;;;;;;107.90;46.55;;;;;;;-1.24;100.00;102125.22;5090625;28;20026;-74
2020/12/01 05:18:15;;;;;;;104.40;45.45;;;;;;;-1.22;100.00;102120.72;5093808;28;20032;-76
2020/12/01 05:21:01;;;;;;;108.68;45.08;;;;;;;-1.33;100.00;102124.94;5094492;28;20074;-76
2020/12/01 05:23:53;;;;;;;121.43;51.63;;;;;;;-1.29;100.00;102121.22;5093872;28;20048;-76
2020/12/01 05:26:22;;;;;;;103.60;40.92;;;;;;;-1.48;100.00;102118.91;5084643;28;20035;-76
2020/12/01 05:28:49;;;;;;;114.53;46.20;;;;;;;-1.48;100.00;102124.97;5090176;28;20410;-76
2020/12/01 05:31:17;;;;;;;119.93;47.33;;;;;;;-1.48;100.00;102134.56;5078493;28;20051;-76
2020/12/01 05:33:43;;;;;;;113.25;45.22;;;;;;;-1.28;100.00;102131.53;5093537;28;20046;-76
2020/12/01 05:36:24;;;;;;;121.55;48.25;;;;;;;-1.23;100.00;102131.28;5096188;28;20024;-77
2020/12/01 05:39:01;;;;;;;135.15;53.22;;;;;;;-1.14;100.00;102129.88;5087888;28;20399;-76
2020/12/01 05:41:37;;;;;;;124.05;48.63;;;;;;;-1.17;100.00;102130.91;5058045;27;20086;-76
2020/12/01 05:44:24;;;;;;;104.82;46.10;;;;;;;-1.08;100.00;102132.09;5054472;28;20041;-76
2020/12/01 05:47:05;;;;;;;135.25;60.75;;;;;;;-1.13;100.00;102134.16;5064449;28;20041;-76
2020/12/01 05:49:30;;;;;;;105.90;46.13;;;;;;;5.28;100.00;102134.63;5060311;28;20126;-73
2020/12/01 05:52:17;;;;;;;99.88;46.00;;;;;;;4.77;85.35;102130.34;5061655;28;20488;-72
2020/12/01 05:54:48;;;;;;;94.25;41.20;;;;;;;-0.08;100.00;102140.41;5056507;28;20776;-75
2020/12/01 05:57:23;;;;;;;238.15;89.13;;;;;;;-0.80;100.00;102144.22;5057644;28;20519;-75
2020/12/01 06:00:11;;;;;;;335.60;127.72;;;;;;;-0.99;100.00;102141.97;5058931;28;20037;-75
2020/12/01 06:03:01;;;;;;;229.77;89.97;;;;;;;-1.14;100.00;102140.31;5051790;28;20028;-74
2020/12/01 06:05:27;;;;;;;169.23;60.97;;;;;;;-1.01;100.00;102136.00;5070687;28;20052;-73
2020/12/01 06:08:03;;;;;;;203.13;71.40;;;;;;;-1.30;100.00;102133.44;5056156;28;20040;-75
2020/12/01 06:10:42;;;;;;;187.90;66.80;;;;;;;-1.25;100.00;102135.75;5062796;28;20036;-74
2020/12/01 06:13:47;;;;;;;189.25;72.20;;;;;;;-1.01;100.00;102143.81;5056098;28;20389;-74
2020/12/01 06:16:20;;;;;;;217.25;86.70;;;;;;;-1.14;100.00;102140.31;5006667;28;20104;-75
2020/12/01 06:18:51;;;;;;;;;;;;;;;-1.25;100.00;102133.13;4985307;28;20550;-74
2020/12/01 06:21:33;;;;;;;235.85;88.63;;;;;;;-1.15;100.00;102139.44;5036232;28;20295;-74
2020/12/01 06:24:25;;;;;;;246.75;93.55;;;;;;;-1.05;100.00;102140.56;5053299;28;20048;-75
2020/12/01 06:27:15;;;;;;;249.07;96.50;;;;;;;-1.11;100.00;102137.50;5059568;28;20032;-74
2020/12/01 06:29:44;;;;;;;261.88;101.85;;;;;;;-0.93;100.00;102141.56;5076875;28;20048;-75
2020/12/01 06:32:40;;;;;;;310.42;117.95;;;;;;;-0.96;100.00;102142.59;5063261;28;20031;-75
2020/12/01 06:35:36;;;;;;;303.90;115.82;;;;;;;-0.88;100.00;102149.91;5055024;28;20455;-75
2020/12/01 06:38:19;;;;;;;366.08;128.15;;;;;;;-0.82;100.00;102146.94;5057433;28;20033;-75
2020/12/01 06:41:14;;;;;;;413.35;145.50;;;;;;;-1.00;100.00;102145.47;5062201;28;20037;-74
2020/12/01 06:43:45;;;;;;;385.17;137.80;;;;;;;-0.82;100.00;102141.72;5057303;28;20109;-75
2020/12/01 06:46:39;;;;;;;382.00;136.55;;;;;;;-0.74;100.00;102136.84;5052457;28;20048;-75
2020/12/01 06:49:09;;;;;;;252.07;91.38;;;;;;;-0.70;100.00;102146.19;5057048;28;20136;-75
2020/12/01 06:51:36;;;;;;;173.45;64.78;;;;;;;-0.52;100.00;102138.09;5059346;28;20029;-76
2020/12/01 06:54:10;;;;;;;177.65;68.22;;;;;;;-0.51;100.00;102139.78;5066988;28;20036;-75
2020/12/01 06:56:36;;;;;;;126.30;51.13;;;;;;;-0.64;100.00;102142.31;5068246;28;20036;-74
2020/12/01 06:59:10;;;;;;;135.73;46.88;;;;;;;-0.47;100.00;102141.25;5055654;28;20496;-76
2020/12/01 07:01:37;;;;;;;127.20;44.53;;;;;;;-0.68;100.00;102143.47;5061494;28;20025;-74
2020/12/01 07:04:12;;;;;;;119.97;45.97;;;;;;;-0.54;100.00;102148.63;5065024;28;20067;-74
2020/12/01 07:06:56;;;;;;;109.50;37.92;;;;;;;-0.37;100.00;102144.09;5063229;28;20776;-75
2020/12/01 07:09:47;;;;;;;124.65;44.15;;;;;;;-0.35;100.00;102139.63;5060031;28;20380;-77
2020/12/01 07:12:13;;;;;;;88.75;32.67;;;;;;;-0.35;100.00;102144.84;5055371;28;20256;-78
2020/12/01 07:14:51;;;;;;;110.22;39.70;;;;;;;-0.43;100.00;102141.88;5068591;28;20070;-78
2020/12/01 07:17:20;;;;;;;115.32;38.20;;;;;;;-0.19;100.00;102144.66;5059187;28;20037;-79
2020/12/01 07:19:57;;;;;;;91.25;33.38;;;;;;;-0.21;100.00;102144.78;5064168;28;20025;-78
2020/12/01 07:22:45;;;;;;;96.65;32.35;;;;;;;-0.09;100.00;102150.94;5072195;28;20024;-78
2020/12/01 07:25:22;;;;;;;101.97;33.50;;;;;;;-0.10;100.00;102154.50;5060839;28;20161;-78
2020/12/01 07:28:03;;;;;;;103.85;37.72;;;;;;;-0.13;100.00;102149.47;5065009;28;20028;-80
2020/12/01 07:30:34;;;;;;;92.97;36.30;;;;;;;0.00;100.00;102147.75;5062450;28;20374;-80
2020/12/01 07:33:14;;;;;;;78.68;31.00;;;;;;;0.01;100.00;102151.19;5060658;28;20028;-79
2020/12/01 07:35:50;;;;;;;83.63;30.00;;;;;;;0.26;100.00;102138.13;5062801;28;20028;-78
2020/12/01 07:38:20;;;;;;;79.07;29.65;;;;;;;0.07;100.00;102137.72;5060792;28;20090;-79
2020/12/01 07:40:52;;;;;;;61.45;24.70;;;;;;;0.19;100.00;102132.50;5061839;28;20033;-79
2020/12/01 07:43:19;;;;;;;;;;;;;;;0.25;100.00;102136.47;5060250;28;20137;-80
2020/12/01 07:45:47;;;;;;;55.35;21.30;;;;;;;0.18;100.00;102136.06;5048931;28;19971;-79
2020/12/01 07:48:18;;;;;;;49.95;20.45;;;;;;;-0.19;100.00;102142.06;4999799;28;20152;-79
2020/12/01 07:50:44;;;;;;;48.28;17.75;;;;;;;-0.38;100.00;102132.81;5064461;28;20082;-79
2020/12/01 07:53:16;;;;;;;44.30;18.75;;;;;;;-0.10;100.00;102129.22;5064490;28;20081;-79
2020/12/01 07:55:48;;;;;;;42.92;16.95;;;;;;;0.05;100.00;102132.59;5063594;28;20028;-80
2020/12/01 07:58:19;;;;;;;48.28;21.30;;;;;;;0.25;100.00;102127.81;5064040;28;20028;-80
2020/12/01 08:00:54;;;;;;;58.95;23.48;;;;;;;0.04;100.00;102137.94;5067397;28;20384;-79
2020/12/01 08:03:26;;;;;;;40.05;16.50;;;;;;;-0.28;100.00;102135.66;5063090;28;20044;-79
2020/12/01 08:05:53;;;;;;;42.35;15.65;;;;;;;-0.62;100.00;102131.78;5065273;28;20047;-79
2020/12/01 08:08:22;;;;;;;41.35;15.60;;;;;;;-0.19;100.00;102136.81;5062469;28;20067;-78
2020/12/01 08:10:50;;;;;;;42.05;16.40;;;;;;;-0.15;100.00;102146.13;5062922;28;20111;-79
2020/12/01 08:13:18;;;;;;;40.65;14.80;;;;;;;-0.39;100.00;102144.19;5063331;28;20045;-79
2020/12/01 08:15:44;;;;;;;40.42;17.65;;;;;;;-0.24;100.00;102145.81;5064481;28;20043;-77
2020/12/01 08:18:15;;;;;;;45.20;16.67;;;;;;;-0.38;100.00;102145.03;5093491;28;20017;-79
2020/12/01 08:20:42;;;;;;;44.33;16.88;;;;;;;0.03;100.00;102144.94;5063995;28;20042;-78
2020/12/01 08:23:20;;;;;;;38.33;14.65;;;;;;;0.25;100.00;102138.25;5064784;28;20027;-79
2020/12/01 08:25:55;;;;;;;32.88;13.65;;;;;;;0.40;100.00;102142.44;5060452;28;20065;-79
2020/12/01 08:28:31;;;;;;;34.67;13.95;;;;;;;0.25;100.00;102139.09;5066312;28;20028;-78
2020/12/01 08:31:16;;;;;;;25.83;12.50;;;;;;;0.24;100.00;102142.63;5068352;28;20031;-79
2020/12/01 08:34:05;;;;;;;38.33;15.32;;;;;;;0.11;100.00;102137.41;5061365;28;20017;-79
2020/12/01 08:36:48;;;;;;;61.15;25.60;;;;;;;0.20;100.00;102136.78;5063302;28;20029;-78
2020/12/01 08:39:35;;;;;;;;;;;;;;;0.17;100.00;102138.75;5057889;28;20025;-78
2020/12/01 08:42:36;;;;;;;48.25;21.58;;;;;;;0.39;100.00;102133.78;5061246;28;19935;-79
2020/12/01 08:45:04;;;;;;;48.45;16.77;;;;;;;0.34;100.00;102141.06;5097863;28;20036;-79
2020/12/01 08:47:31;;;;;;;37.15;16.13;;;;;;;-0.09;100.00;102137.88;5063171;28;20028;-76
2020/12/01 08:49:56;;;;;;;39.75;14.30;;;;;;;3.11;100.00;102134.59;5056370;28;20040;-78
2020/12/01 08:52:40;;;;;;;36.58;13.82;;;;;;;5.24;91.39;102127.16;5062551;28;20021;-77
2020/12/01 08:55:31;;;;;;;33.13;12.32;;;;;;;1.05;100.00;102123.06;5061042;28;20028;-81
2020/12/01 08:58:05;;;;;;;36.83;15.82;;;;;;;0.79;100.00;102124.94;5053062;28;20033;-79
2020/12/01 09:00:33;;;;;;;44.70;18.00;;;;;;;0.66;100.00;102125.75;5061714;28;20366;-79
2020/12/01 09:03:06;;;;;;;43.88;17.13;;;;;;;0.71;100.00;102122.03;5050261;28;20473;-79
2020/12/01 09:05:35;;;;;;;38.83;13.32;;;;;;;0.20;100.00;102122.88;5059870;28;20504;-78
2020/12/01 09:08:36;;;;;;;45.42;17.55;;;;;;;-0.11;100.00;102118.88;5059045;28;20101;-78
2020/12/01 09:17:14;;;;;;;55.78;21.45;;;;;;;0.13;100.00;102101.56;5027197;28;20040;-79
2020/12/01 09:22:21;;;;;;;48.28;19.33;;;;;;;0.25;100.00;102092.06;5057973;28;20417;-77
2020/12/01 09:24:47;;;;;;;57.13;23.25;;;;;;;0.68;100.00;102089.06;5059158;28;20029;-78
2020/12/01 09:27:15;;;;;;;38.33;18.42;;;;;;;0.72;100.00;102087.06;5062024;28;20131;-79
2020/12/01 09:29:49;;;;;;;50.25;24.20;;;;;;;0.38;100.00;102074.56;5076772;28;20020;-78
2020/12/01 09:32:21;;;;;;;48.08;20.13;;;;;;;0.53;100.00;102075.28;5063329;28;20123;-79
2020/12/01 09:34:48;;;;;;;79.00;31.88;;;;;;;0.54;100.00;102070.88;5058366;28;20043;-78
2020/12/01 09:37:14;;;;;;;64.30;23.75;;;;;;;0.32;100.00;102061.94;5058214;28;20040;-79
2020/12/01 09:39:40;;;;;;;43.63;19.05;;;;;;;-0.15;100.00;102065.16;5062431;28;20021;-79
2020/12/01 09:47:03;;;;;;;36.70;15.73;;;;;;;0.19;100.00;102055.88;5050582;28;20025;-78
2020/12/01 09:49:29;;;;;;;41.25;15.73;;;;;;;-0.10;100.00;102056.06;5061713;28;20052;-78
2020/12/01 09:52:00;;;;;;;55.65;19.77;;;;;;;-0.22;100.00;102046.47;5062889;28;20067;-77
2020/12/01 09:56:57;;;;;;;157.40;49.70;;;;;;;-0.20;100.00;102041.97;5066219;28;20356;-79
2020/12/01 09:59:50;;;;;;;76.07;27.00;;;;;;;0.11;100.00;102039.88;5057019;28;20032;-79
2020/12/01 10:17:55;;;;;;;140.82;46.55;;;;;;;0.08;100.00;102040.94;5058648;28;20039;-79
2020/12/01 10:35:57;;;;;;;75.15;28.08;;;;;;;-0.12;100.00;102046.66;5059730;28;20106;-78
2020/12/01 10:38:23;;;;;;;69.85;28.98;;;;;;;-0.01;100.00;102039.78;5066630;28;20099;-78
2020/12/01 10:40:49;;;;;;;73.15;27.52;;;;;;;-0.41;100.00;102033.81;5068270;28;20566;-79
2020/12/01 10:43:15;;;;;;;69.00;27.25;;;;;;;-0.28;100.00;102039.03;5055998;28;20021;-79
2020/12/01 10:45:41;;;;;;;52.67;20.63;;;;;;;0.14;100.00;102035.28;5071490;28;20029;-78
2020/12/01 10:48:06;;;;;;;53.10;19.95;;;;;;;0.08;100.00;102030.47;5068363;28;20754;-78
2020/12/01 10:50:32;;;;;;;65.88;23.45;;;;;;;-0.04;100.00;102026.94;5066050;28;20046;-78
2020/12/01 10:52:58;;;;;;;63.35;24.20;;;;;;;-0.11;100.00;102024.84;5056716;28;20336;-78
2020/12/01 10:55:29;;;;;;;91.15;32.65;;;;;;;-0.08;100.00;102030.69;5059358;28;20516;-78
2020/12/01 10:57:55;;;;;;;89.68;32.00;;;;;;;0.05;100.00;102033.31;5064613;28;20033;-78
2020/12/01 11:00:23;;;;;;;75.47;33.67;;;;;;;0.28;100.00;102033.50;5064460;28;20393;-78
2020/12/01 11:02:49;;;;;;;72.38;28.13;;;;;;;-0.01;100.00;102024.09;5062796;28;20115;-78
2020/12/01 11:05:18;;;;;;;69.80;25.33;;;;;;;-0.07;100.00;102027.13;5064197;28;20048;-78
2020/12/01 11:07:44;;;;;;;63.83;24.40;;;;;;;-0.24;100.00;102030.91;5065731;28;20082;-78
2020/12/01 11:10:09;;;;;;;69.07;25.05;;;;;;;-0.10;100.00;102024.72;5060675;28;20024;-78
2020/12/01 11:12:35;;;;;;;58.15;21.85;;;;;;;0.14;100.00;102024.00;5100236;28;20070;-78
2020/12/01 11:15:00;;;;;;;61.65;23.38;;;;;;;-0.40;100.00;102024.19;5064104;28;20087;-78
2020/12/01 11:17:26;;;;;;;60.70;22.27;;;;;;;0.09;100.00;102018.25;5057383;28;20025;-78
2020/12/01 11:19:51;;;;;;;59.22;22.08;;;;;;;-0.04;100.00;102016.47;5062484;28;20039;-78
2020/12/01 11:22:17;;;;;;;56.10;20.75;;;;;;;0.06;100.00;102018.47;5063392;28;20016;-78
2020/12/01 11:24:42;;;;;;;49.70;22.75;;;;;;;0.41;100.00;102024.69;5033221;28;20024;-78
2020/12/01 11:27:08;;;;;;;50.55;20.60;;;;;;;-0.18;100.00;102010.53;5063295;28;20118;-78
2020/12/01 11:29:33;;;;;;;43.60;18.80;;;;;;;0.25;100.00;102013.66;5066043;28;20021;-79
2020/12/01 11:31:59;;;;;;;39.40;17.70;;;;;;;0.60;100.00;102010.31;5071036;28;20033;-78
2020/12/01 11:34:24;;;;;;;44.63;19.75;;;;;;;1.02;100.00;102001.16;5059659;28;20025;-78
2020/12/01 11:36:50;;;;;;;53.17;26.50;;;;;;;2.08;98.38;101997.59;5067443;28;20463;-78
2020/12/01 11:39:15;;;;;;;38.13;19.65;;;;;;;1.66;95.17;101992.88;5065325;28;20444;-78
2020/12/01 11:41:41;;;;;;;38.53;17.15;;;;;;;3.25;90.98;101994.34;5066742;28;20027;-78
2020/12/01 11:44:08;;;;;;;40.45;16.73;;;;;;;2.76;92.56;102001.78;5064872;28;20025;-78
2020/12/01 11:46:34;;;;;;;34.63;16.55;;;;;;;4.19;85.29;101989.88;5076919;28;20032;-76
2020/12/01 11:49:03;;;;;;;37.17;16.88;;;;;;;3.51;88.06;101997.41;5061745;28;20469;-78
2020/12/01 11:51:30;;;;;;;37.88;15.88;;;;;;;3.85;81.88;101987.53;5067142;28;20017;-78
2020/12/01 11:53:55;;;;;;;35.03;16.58;;;;;;;2.62;84.54;101994.19;5069461;28;20025;-78
2020/12/01 11:56:21;;;;;;;39.00;18.23;;;;;;;4.87;80.84;101990.88;5061985;28;20032;-78
2020/12/01 11:58:46;;;;;;;35.17;18.17;;;;;;;5.57;77.90;101985.41;5064187;28;20032;-78
2020/12/01 12:01:12;;;;;;;31.40;14.88;;;;;;;5.96;76.26;101997.56;5085580;28;20032;-77
2020/12/01 12:03:37;;;;;;;34.53;17.00;;;;;;;6.07;70.79;101983.34;5063261;28;20457;-78
2020/12/01 12:06:04;;;;;;;35.33;16.88;;;;;;;4.02;79.89;101986.88;5064128;28;20036;-79
2020/12/01 12:08:29;;;;;;;27.75;14.63;;;;;;;6.01;70.03;101980.44;5097857;28;20033;-78
2020/12/01 12:10:55;;;;;;;30.83;16.83;;;;;;;2.57;80.83;101985.84;5063139;28;20036;-78
2020/12/01 12:13:20;;;;;;;30.55;15.40;;;;;;;5.13;74.50;101979.78;5062797;28;20041;-79
2020/12/01 12:15:46;;;;;;;30.35;15.60;;;;;;;6.27;69.13;101975.34;5054345;28;20454;-78
2020/12/01 12:18:11;;;;;;;30.10;15.85;;;;;;;3.30;75.90;101969.38;5060941;28;20024;-76
2020/12/01 12:20:37;;;;;;;31.40;15.88;;;;;;;2.60;81.41;101982.97;5065435;28;20361;-78